createdAt,value
2023-05-10T00:00:26.570Z,37.92
2023-05-10T00:02:28.128Z,37.64
2023-05-10T00:04:29.725Z,37.63
2023-05-10T00:06:31.308Z,37.85
2023-05-10T00:08:32.920Z,37.49
2023-05-10T00:10:34.458Z,37.66
2023-05-10T00:12:35.943Z,37.57
2023-05-10T00:14:37.360Z,37.53
2023-05-10T00:16:38.910Z,37.69
2023-05-10T00:18:40.704Z,37.60
2023-05-10T00:20:42.237Z,37.54
2023-05-10T00:22:43.822Z,37.20
2023-05-10T00:24:45.300Z,37.23
2023-05-10T00:26:46.972Z,37.15
2023-05-10T00:28:48.516Z,37.10
2023-05-10T00:30:49.962Z,37.19
2023-05-10T00:32:52.666Z,37.21
2023-05-10T00:34:54.196Z,37.12
2023-05-10T00:36:55.756Z,37.26
2023-05-10T00:38:57.430Z,36.93
2023-05-10T00:40:58.813Z,37.15
2023-05-10T00:43:01.550Z,37.33
2023-05-10T00:45:03.139Z,37.19
2023-05-10T00:47:04.729Z,37.14
2023-05-10T00:49:06.824Z,37.09
2023-05-10T00:51:08.384Z,37.34
2023-05-10T00:53:09.902Z,37.04
2023-05-10T00:55:13.004Z,37.14
2023-05-10T00:57:14.453Z,37.30
2023-05-10T00:59:17.584Z,37.07
2023-05-10T01:01:20.089Z,37.19
2023-05-10T01:03:22.097Z,37.04
2023-05-10T01:05:23.906Z,37.14
2023-05-10T01:07:25.485Z,37.26
2023-05-10T01:09:27.371Z,37.15
2023-05-10T01:11:28.929Z,37.31
2023-05-10T01:13:34.324Z,37.13
2023-05-10T01:15:36.630Z,37.15
2023-05-10T01:17:39.309Z,37.24
2023-05-10T01:19:41.173Z,37.01
2023-05-10T01:21:50.696Z,37.34
2023-05-10T01:24:15.250Z,37.27
2023-05-10T01:26:31.335Z,37.21
2023-05-10T01:28:41.796Z,37.13
2023-05-10T01:31:05.076Z,37.12
2023-05-10T01:33:21.796Z,37.28
2023-05-10T01:35:44.430Z,37.31
2023-05-10T01:37:58.816Z,37.20
2023-05-10T01:40:14.386Z,37.30
2023-05-10T01:42:22.480Z,37.11
2023-05-10T01:44:29.871Z,37.15
2023-05-10T01:46:37.973Z,37.25
2023-05-10T01:48:41.261Z,37.17
2023-05-10T01:50:44.257Z,37.08
2023-05-10T01:52:49.154Z,37.20
2023-05-10T01:54:55.000Z,36.94
2023-05-10T01:57:00.445Z,37.20
2023-05-10T01:59:07.177Z,37.00
2023-05-10T02:01:09.461Z,37.26
2023-05-10T02:03:12.369Z,37.19
2023-05-10T02:05:16.030Z,37.19
2023-05-10T02:07:18.081Z,36.88
2023-05-10T02:09:20.257Z,36.87
2023-05-10T02:11:22.414Z,36.75
2023-05-10T02:13:24.771Z,36.92
2023-05-10T02:15:27.464Z,37.00
2023-05-10T02:17:29.698Z,36.92
2023-05-10T02:19:32.947Z,36.81
2023-05-10T02:21:34.525Z,37.03
2023-05-10T02:23:36.820Z,36.78
2023-05-10T02:25:39.657Z,36.76
2023-05-10T02:27:42.590Z,36.92
2023-05-10T02:29:44.204Z,36.87
2023-05-10T02:31:46.697Z,36.96
2023-05-10T02:33:49.116Z,36.66
2023-05-10T02:35:51.752Z,36.79
2023-05-10T02:37:54.420Z,36.92
2023-05-10T02:39:56.324Z,36.91
2023-05-10T02:41:58.293Z,36.93
2023-05-10T02:44:01.103Z,36.85
2023-05-10T02:46:03.108Z,36.90
2023-05-10T02:48:04.814Z,36.89
2023-05-10T02:50:06.765Z,36.85
2023-05-10T02:52:10.129Z,36.68
2023-05-10T02:54:16.742Z,36.78
2023-05-10T02:56:32.698Z,36.61
2023-05-10T02:58:34.245Z,36.80
2023-05-10T03:00:37.197Z,36.67
2023-05-10T03:02:38.808Z,36.72
2023-05-10T03:04:40.361Z,36.71
2023-05-10T03:06:42.769Z,36.73
2023-05-10T03:08:45.316Z,36.33
2023-05-10T03:10:55.610Z,36.65
2023-05-10T03:13:07.073Z,36.59
2023-05-10T03:15:13.293Z,37.04
2023-05-10T03:17:17.748Z,36.52
2023-05-10T03:19:31.180Z,36.65
2023-05-10T03:21:33.525Z,36.66
2023-05-10T03:23:43.763Z,36.76
2023-05-10T03:25:47.810Z,36.43
2023-05-10T03:27:50.163Z,36.68
2023-05-10T03:29:52.209Z,36.49
2023-05-10T03:31:53.840Z,36.62
2023-05-10T03:33:55.499Z,36.69
2023-05-10T03:35:57.965Z,36.46
2023-05-10T03:37:59.365Z,36.46
2023-05-10T03:40:00.807Z,36.66
2023-05-10T03:42:02.268Z,36.43
2023-05-10T03:44:04.072Z,36.47
2023-05-10T03:46:06.299Z,36.63
2023-05-10T03:48:07.913Z,36.62
2023-05-10T03:50:09.615Z,36.50
2023-05-10T03:52:11.051Z,36.58
2023-05-10T03:54:12.838Z,36.50
2023-05-10T03:56:14.387Z,36.45
2023-05-10T03:58:16.129Z,36.55
2023-05-10T04:00:18.271Z,36.35
2023-05-10T04:02:19.958Z,36.51
2023-05-10T04:04:22.386Z,36.44
2023-05-10T04:06:23.833Z,36.56
2023-05-10T04:08:25.286Z,36.36
2023-05-10T04:10:26.810Z,36.44
2023-05-10T04:12:28.679Z,36.49
2023-05-10T04:14:30.341Z,36.37
2023-05-10T04:16:31.789Z,36.50
2023-05-10T04:18:33.216Z,36.31
2023-05-10T04:20:35.174Z,36.51
2023-05-10T04:22:36.671Z,36.58
2023-05-10T04:24:38.095Z,36.35
2023-05-10T04:26:39.565Z,36.63
2023-05-10T04:28:41.001Z,36.22
2023-05-10T04:30:42.559Z,36.54
2023-05-10T04:32:44.000Z,36.50
2023-05-10T04:34:45.608Z,36.52
2023-05-10T04:36:47.096Z,36.44
2023-05-10T04:38:48.697Z,36.48
2023-05-10T04:40:50.300Z,36.57
2023-05-10T04:42:52.439Z,36.54
2023-05-10T04:44:54.096Z,36.55
2023-05-10T04:46:58.847Z,36.29
2023-05-10T04:49:00.395Z,36.32
2023-05-10T04:51:02.075Z,36.52
2023-05-10T04:53:03.516Z,36.57
2023-05-10T04:55:05.430Z,36.46
2023-05-10T04:57:06.881Z,36.56
2023-05-10T04:59:08.368Z,36.53
2023-05-10T05:01:11.477Z,36.24
2023-05-10T05:03:13.054Z,36.65
2023-05-10T05:05:17.485Z,36.55
2023-05-10T05:07:18.896Z,36.28
2023-05-10T05:09:20.836Z,36.56
2023-05-10T05:11:22.253Z,36.29
2023-05-10T05:13:23.841Z,36.56
2023-05-10T05:15:25.578Z,36.52
2023-05-10T05:17:27.227Z,36.64
2023-05-10T05:19:28.696Z,36.40
2023-05-10T05:21:30.201Z,36.49
2023-05-10T05:23:31.738Z,36.47
2023-05-10T05:25:33.204Z,36.49
2023-05-10T05:27:34.802Z,36.73
2023-05-10T05:29:36.487Z,36.47
2023-05-10T05:31:38.063Z,36.73
2023-05-10T05:33:39.591Z,36.43
2023-05-10T05:35:41.046Z,36.53
2023-05-10T05:37:42.491Z,36.59
2023-05-10T05:39:44.202Z,36.47
2023-05-10T05:41:45.903Z,36.55
2023-05-10T05:43:47.403Z,36.80
2023-05-10T05:45:48.944Z,36.59
2023-05-10T05:47:50.751Z,36.45
2023-05-10T05:49:52.333Z,36.60
2023-05-10T05:51:54.509Z,36.66
2023-05-10T05:53:56.278Z,36.79
2023-05-10T05:55:59.053Z,36.75
2023-05-10T05:58:00.572Z,36.65
2023-05-10T06:00:02.414Z,36.78
2023-05-10T06:02:04.071Z,36.54
2023-05-10T06:04:05.634Z,36.58
2023-05-10T06:06:07.324Z,36.72
2023-05-10T06:08:08.911Z,36.62
2023-05-10T06:10:10.527Z,36.72
2023-05-10T06:12:12.906Z,36.71
2023-05-10T06:14:14.399Z,36.74
2023-05-10T06:16:16.032Z,36.85
2023-05-10T06:18:17.506Z,36.74
2023-05-10T06:20:18.999Z,36.55
2023-05-10T06:22:20.626Z,36.77
2023-05-10T06:24:22.777Z,36.90
2023-05-10T06:26:24.289Z,36.75
2023-05-10T06:28:25.727Z,36.77
2023-05-10T06:30:29.485Z,36.62
2023-05-10T06:32:31.527Z,36.81
2023-05-10T06:34:33.244Z,36.63
2023-05-10T06:36:34.949Z,36.61
2023-05-10T06:38:36.379Z,36.84
2023-05-10T06:40:37.811Z,36.53
2023-05-10T06:42:39.345Z,36.67
2023-05-10T06:44:40.825Z,36.82
2023-05-10T06:46:42.830Z,36.87
2023-05-10T06:48:44.545Z,36.77
2023-05-10T06:50:46.046Z,36.92
2023-05-10T06:52:47.490Z,36.62
2023-05-10T06:54:49.309Z,36.94
2023-05-10T06:56:50.910Z,36.80
2023-05-10T06:58:52.506Z,36.63
2023-05-10T07:00:54.091Z,36.59
2023-05-10T07:02:56.041Z,36.78
2023-05-10T07:05:00.843Z,36.80
2023-05-10T07:07:03.613Z,36.93
2023-05-10T07:09:05.022Z,36.76
2023-05-10T07:11:08.297Z,36.87
2023-05-10T07:13:10.801Z,36.94
2023-05-10T07:15:12.437Z,37.05
2023-05-10T07:17:14.060Z,36.81
2023-05-10T07:19:15.830Z,36.97
2023-05-10T07:21:17.541Z,36.84
2023-05-10T07:23:19.393Z,36.81
2023-05-10T07:25:20.845Z,37.02
2023-05-10T07:27:22.270Z,37.00
2023-05-10T07:29:23.786Z,36.88
2023-05-10T07:31:25.285Z,36.90
2023-05-10T07:33:26.764Z,36.85
2023-05-10T07:35:28.178Z,36.93
2023-05-10T07:37:29.688Z,36.95
2023-05-10T07:39:31.326Z,36.90
2023-05-10T07:41:35.110Z,36.94
2023-05-10T07:43:37.096Z,36.93
2023-05-10T07:45:38.783Z,36.92
2023-05-10T07:47:40.338Z,37.08
2023-05-10T07:49:41.911Z,37.00
2023-05-10T07:51:43.703Z,36.72
2023-05-10T07:53:45.252Z,37.09
2023-05-10T07:55:51.364Z,37.02
2023-05-10T07:57:53.060Z,37.12
2023-05-10T07:59:54.681Z,37.08
2023-05-10T08:01:57.311Z,37.12
2023-05-10T08:03:58.912Z,37.12
2023-05-10T08:06:00.643Z,37.15
2023-05-10T08:08:02.103Z,36.97
2023-05-10T08:10:03.948Z,37.15
2023-05-10T08:12:05.654Z,37.18
2023-05-10T08:14:07.219Z,37.05
2023-05-10T08:16:08.795Z,37.19
2023-05-10T08:18:10.494Z,37.24
2023-05-10T08:20:13.863Z,37.18
2023-05-10T08:22:15.276Z,37.51
2023-05-10T08:24:16.745Z,37.37
2023-05-10T08:26:18.203Z,37.37
2023-05-10T08:28:19.623Z,37.14
2023-05-10T08:30:21.072Z,36.76
2023-05-10T08:32:22.512Z,36.84
2023-05-10T08:34:24.738Z,36.57
2023-05-10T08:36:27.484Z,36.76
2023-05-10T08:38:28.972Z,36.48
2023-05-10T08:40:30.491Z,36.57
2023-05-10T08:42:35.876Z,36.62
2023-05-10T08:44:37.767Z,36.62
2023-05-10T08:46:45.016Z,36.65
2023-05-10T08:48:47.467Z,36.35
2023-05-10T08:50:49.654Z,36.10
2023-05-10T08:52:53.844Z,36.31
2023-05-10T08:54:55.301Z,36.60
2023-05-10T08:56:57.150Z,36.65
2023-05-10T08:58:58.886Z,36.53
2023-05-10T09:01:00.471Z,36.45
2023-05-10T09:03:02.632Z,36.66
2023-05-10T09:05:05.696Z,36.67
2023-05-10T09:07:07.749Z,36.67
2023-05-10T09:09:09.365Z,36.96
2023-05-10T09:11:11.639Z,37.00
2023-05-10T09:13:15.036Z,36.89
2023-05-10T09:15:17.393Z,36.97
2023-05-10T09:17:19.204Z,36.90
2023-05-10T09:19:20.836Z,37.16
2023-05-10T09:21:22.321Z,37.13
2023-05-10T09:23:24.383Z,37.20
2023-05-10T09:25:25.972Z,37.09
2023-05-10T09:27:27.811Z,37.02
2023-05-10T09:29:39.823Z,37.18
2023-05-10T09:31:57.372Z,36.92
2023-05-10T09:33:59.077Z,37.11
2023-05-10T09:36:08.212Z,37.24
2023-05-10T09:38:11.269Z,37.41
2023-05-10T09:40:16.819Z,37.11
2023-05-10T09:42:19.134Z,37.25
2023-05-10T09:44:20.786Z,37.44
2023-05-10T09:46:23.514Z,37.18
2023-05-10T09:48:25.813Z,37.30
2023-05-10T09:50:27.682Z,37.04
2023-05-10T09:52:29.500Z,36.93
2023-05-10T09:54:31.398Z,36.90
2023-05-10T09:56:36.880Z,36.93
2023-05-10T09:58:41.642Z,36.88
2023-05-10T10:00:44.036Z,36.79
2023-05-10T10:02:49.199Z,36.97
2023-05-10T10:04:51.692Z,36.95
2023-05-10T10:07:19.537Z,36.71
2023-05-10T10:09:21.081Z,36.73
2023-05-10T10:11:23.836Z,36.69
2023-05-10T10:13:25.503Z,36.74
2023-05-10T10:15:27.145Z,36.94
2023-05-10T10:17:29.200Z,36.89
2023-05-10T10:19:31.410Z,36.81
2023-05-10T10:21:33.597Z,36.82
2023-05-10T10:23:37.892Z,36.70
2023-05-10T10:25:39.595Z,36.68
2023-05-10T10:27:59.358Z,36.87
2023-05-10T10:30:16.068Z,36.73
2023-05-10T10:32:29.107Z,36.78
2023-05-10T10:34:31.593Z,36.75
2023-05-10T10:36:34.905Z,36.99
2023-05-10T10:38:37.886Z,36.71
2023-05-10T10:40:39.684Z,36.65
2023-05-10T10:42:51.115Z,36.85
2023-05-10T10:45:12.320Z,36.60
2023-05-10T10:47:24.055Z,36.53
2023-05-10T10:49:25.779Z,36.61
2023-05-10T10:51:29.971Z,36.63
2023-05-10T10:53:31.774Z,36.85
2023-05-10T10:55:33.386Z,36.75
2023-05-10T10:57:43.653Z,36.81
2023-05-10T10:59:45.459Z,36.69
2023-05-10T11:01:52.514Z,36.74
2023-05-10T11:04:06.593Z,36.69
2023-05-10T11:06:09.089Z,36.66
2023-05-10T11:08:12.024Z,36.64
2023-05-10T11:10:19.985Z,36.35
2023-05-10T11:12:21.560Z,36.49
2023-05-10T11:14:23.568Z,36.31
2023-05-10T11:16:26.254Z,36.30
2023-05-10T11:18:29.512Z,36.13
2023-05-10T11:20:39.378Z,36.12
2023-05-10T11:22:51.649Z,36.29
2023-05-10T11:25:02.024Z,36.26
2023-05-10T11:27:03.541Z,36.11
2023-05-10T11:29:05.984Z,36.01
2023-05-10T11:31:07.788Z,36.00
2023-05-10T11:33:09.810Z,36.34
2023-05-10T11:35:12.061Z,35.89
2023-05-10T11:37:13.592Z,36.31
2023-05-10T11:39:15.097Z,36.00
2023-05-10T11:41:18.194Z,36.02
2023-05-10T11:43:19.747Z,36.14
2023-05-10T11:45:22.846Z,36.18
2023-05-10T11:47:24.539Z,36.07
2023-05-10T11:49:26.993Z,36.15
2023-05-10T11:51:28.585Z,36.09
2023-05-10T11:53:33.207Z,35.90
2023-05-10T11:55:34.828Z,36.02
2023-05-10T11:57:39.352Z,36.00
2023-05-10T11:59:43.095Z,36.06
2023-05-10T12:01:45.086Z,36.67
2023-05-10T12:03:46.932Z,36.10
2023-05-10T12:05:48.818Z,35.96
2023-05-10T12:07:50.336Z,35.79
2023-05-10T12:10:07.291Z,35.70
2023-05-10T12:12:08.710Z,35.06
2023-05-10T12:14:10.830Z,35.31
2023-05-10T12:16:17.012Z,35.12
2023-05-10T12:18:24.397Z,35.26
2023-05-10T12:20:28.312Z,35.33
2023-05-10T12:22:29.983Z,35.23
2023-05-10T12:24:31.552Z,35.43
2023-05-10T12:26:33.302Z,35.48
2023-05-10T12:28:36.403Z,35.28
2023-05-10T12:30:38.183Z,35.36
2023-05-10T12:32:40.567Z,35.40
2023-05-10T12:34:42.098Z,35.24
2023-05-10T12:36:43.533Z,35.48
2023-05-10T12:38:48.670Z,35.44
2023-05-10T12:40:50.865Z,35.43
2023-05-10T12:42:53.516Z,35.45
2023-05-10T12:44:58.511Z,35.07
2023-05-10T12:46:59.964Z,35.09
2023-05-10T12:49:08.574Z,35.17
2023-05-10T12:51:14.054Z,35.55
2023-05-10T12:53:16.740Z,35.47
2023-05-10T12:55:18.395Z,35.43
2023-05-10T12:57:20.865Z,35.54
2023-05-10T12:59:22.392Z,35.45
2023-05-10T13:01:24.055Z,35.55
2023-05-10T13:03:25.747Z,35.63
2023-05-10T13:05:27.537Z,35.45
2023-05-10T13:07:29.130Z,35.53
2023-05-10T13:09:30.769Z,35.38
2023-05-10T13:11:32.376Z,35.50
2023-05-10T13:13:33.983Z,35.67
2023-05-10T13:15:36.086Z,35.81
2023-05-10T13:17:39.884Z,35.90
2023-05-10T13:19:41.435Z,35.99
2023-05-10T13:21:43.080Z,36.14
2023-05-10T13:23:44.491Z,36.45
2023-05-10T13:25:45.961Z,36.28
2023-05-10T13:27:47.421Z,36.83
2023-05-10T13:29:49.264Z,37.01
2023-05-10T13:31:51.253Z,37.20
2023-05-10T13:33:52.734Z,37.13
2023-05-10T13:35:55.774Z,37.02
2023-05-10T13:37:58.672Z,37.21
2023-05-10T13:40:00.118Z,37.04
2023-05-10T13:42:01.617Z,37.54
2023-05-10T13:44:03.153Z,37.64
2023-05-10T13:46:04.706Z,37.61
2023-05-10T13:48:06.863Z,37.54
2023-05-10T13:50:08.772Z,37.53
2023-05-10T13:52:10.972Z,37.63
2023-05-10T13:54:13.638Z,37.68
2023-05-10T13:56:15.308Z,37.50
2023-05-10T13:58:16.905Z,37.72
2023-05-10T14:00:18.451Z,37.95
2023-05-10T14:02:19.978Z,37.63
2023-05-10T14:04:21.610Z,37.94
2023-05-10T14:06:23.048Z,38.13
2023-05-10T14:08:24.810Z,38.22
2023-05-10T14:10:26.416Z,38.29
2023-05-10T14:12:28.160Z,38.53
2023-05-10T14:14:30.443Z,38.70
2023-05-10T14:16:32.160Z,38.59
2023-05-10T14:18:33.669Z,38.81
2023-05-10T14:20:35.283Z,38.58
2023-05-10T14:22:36.915Z,38.91
2023-05-10T14:24:39.175Z,38.22
2023-05-10T14:26:40.845Z,38.16
2023-05-10T14:28:42.422Z,37.89
2023-05-10T14:30:43.920Z,37.97
2023-05-10T14:32:45.400Z,37.73
2023-05-10T14:34:46.810Z,37.86
2023-05-10T14:36:48.320Z,37.87
2023-05-10T14:38:49.792Z,37.88
2023-05-10T14:40:51.246Z,37.46
2023-05-10T14:42:54.058Z,37.48
2023-05-10T14:44:55.607Z,37.48
2023-05-10T14:46:57.294Z,37.00
2023-05-10T14:48:58.757Z,36.68
2023-05-10T14:51:00.166Z,36.48
2023-05-10T14:53:01.596Z,36.85
2023-05-10T14:55:03.461Z,36.88
2023-05-10T14:57:04.863Z,36.86
2023-05-10T14:59:06.431Z,36.70
2023-05-10T15:01:08.297Z,37.05
2023-05-10T15:03:10.377Z,36.56
2023-05-10T15:05:12.315Z,36.58
2023-05-10T15:07:16.458Z,36.68
2023-05-10T15:09:18.089Z,36.32
2023-05-10T15:11:19.510Z,36.20
2023-05-10T15:13:20.947Z,35.80
2023-05-10T15:15:22.344Z,35.75
2023-05-10T15:17:24.040Z,35.41
2023-05-10T15:19:25.639Z,35.53
2023-05-10T15:21:28.440Z,35.46
2023-05-10T15:23:30.828Z,35.79
2023-05-10T15:25:35.188Z,35.79
2023-05-10T15:27:36.694Z,35.61
2023-05-10T15:29:38.167Z,35.95
2023-05-10T15:31:40.454Z,35.79
2023-05-10T15:33:42.052Z,36.19
2023-05-10T15:35:43.561Z,36.37
2023-05-10T15:37:45.069Z,36.46
2023-05-10T15:39:46.550Z,36.28
2023-05-10T15:41:48.136Z,36.59
2023-05-10T15:43:49.532Z,36.66
2023-05-10T15:45:51.346Z,36.39
2023-05-10T15:47:53.182Z,36.29
2023-05-10T15:49:54.663Z,36.26
2023-05-10T15:51:56.162Z,36.20
2023-05-10T15:54:07.194Z,36.29
2023-05-10T15:56:09.688Z,36.31
2023-05-10T15:58:11.406Z,36.14
2023-05-10T16:00:13.238Z,36.08
2023-05-10T16:02:15.893Z,36.01
2023-05-10T16:04:18.131Z,36.03
2023-05-10T16:06:19.662Z,35.54
2023-05-10T16:08:21.046Z,35.68
2023-05-10T16:10:22.521Z,35.86
2023-05-10T16:12:23.941Z,35.87
2023-05-10T16:14:25.598Z,35.76
2023-05-10T16:16:27.104Z,36.07
2023-05-10T16:18:28.832Z,35.91
2023-05-10T16:20:31.107Z,36.05
2023-05-10T16:22:32.777Z,35.85
2023-05-10T16:24:34.248Z,36.23
2023-05-10T16:26:40.831Z,36.17
2023-05-10T16:28:42.589Z,36.05
2023-05-10T16:30:44.103Z,35.90
2023-05-10T16:32:45.668Z,35.96
2023-05-10T16:34:47.250Z,36.28
2023-05-10T16:36:48.726Z,36.08
2023-05-10T16:38:50.418Z,36.29
2023-05-10T16:40:51.871Z,36.54
2023-05-10T16:42:53.361Z,36.29
2023-05-10T16:44:54.941Z,35.99
2023-05-10T16:46:56.371Z,36.24
2023-05-10T16:48:59.760Z,35.87
2023-05-10T16:51:02.678Z,35.53
2023-05-10T16:53:04.257Z,35.64
2023-05-10T16:55:05.981Z,34.99
2023-05-10T16:57:08.506Z,34.91
2023-05-10T16:59:10.167Z,34.82
2023-05-10T17:01:12.164Z,34.85
2023-05-10T17:03:13.696Z,34.80
2023-05-10T17:05:15.343Z,34.95
2023-05-10T17:07:19.050Z,35.23
2023-05-10T17:09:20.629Z,35.50
2023-05-10T17:11:22.177Z,35.33
2023-05-10T17:13:23.583Z,35.46
2023-05-10T17:15:25.091Z,35.43
2023-05-10T17:17:26.850Z,35.66
2023-05-10T17:19:28.457Z,35.54
2023-05-10T17:21:29.863Z,35.73
2023-05-10T17:23:31.398Z,35.69
2023-05-10T17:25:34.894Z,35.63
2023-05-10T17:27:36.457Z,35.61
2023-05-10T17:29:38.170Z,35.75
2023-05-10T17:31:39.995Z,35.69
2023-05-10T17:33:41.573Z,35.91
2023-05-10T17:35:44.806Z,36.04
2023-05-10T17:37:46.464Z,35.81
2023-05-10T17:39:47.935Z,35.77
2023-05-10T17:41:49.448Z,36.09
2023-05-10T17:43:51.056Z,36.26
2023-05-10T17:45:52.962Z,36.34
2023-05-10T17:47:54.574Z,36.32
2023-05-10T17:49:56.050Z,36.31
2023-05-10T17:51:57.695Z,36.24
2023-05-10T17:53:59.319Z,36.38
2023-05-10T17:56:01.632Z,36.23
2023-05-10T17:58:03.163Z,36.35
2023-05-10T18:00:06.461Z,36.40
2023-05-10T18:02:07.964Z,36.15
2023-05-10T18:04:09.633Z,36.14
2023-05-10T18:06:11.197Z,36.20
2023-05-10T18:08:12.761Z,36.05
2023-05-10T18:10:14.202Z,36.35
2023-05-10T18:12:15.809Z,36.56
2023-05-10T18:14:32.060Z,36.28
2023-05-10T18:16:38.942Z,36.23
2023-05-10T18:18:40.737Z,36.57
2023-05-10T18:20:42.440Z,36.41
2023-05-10T18:22:44.032Z,36.45
2023-05-10T18:24:46.988Z,36.49
2023-05-10T18:26:48.816Z,36.33
2023-05-10T18:28:50.243Z,36.30
2023-05-10T18:30:51.885Z,36.17
2023-05-10T18:32:54.043Z,36.31
2023-05-10T18:34:56.628Z,36.29
2023-05-10T18:36:58.258Z,36.39
2023-05-10T18:38:59.754Z,36.22
2023-05-10T18:41:01.298Z,36.06
2023-05-10T18:43:03.328Z,36.16
2023-05-10T18:45:04.948Z,36.39
2023-05-10T18:47:06.773Z,36.34
2023-05-10T18:49:08.436Z,36.26
2023-05-10T18:51:10.336Z,36.15
2023-05-10T18:53:12.329Z,36.19
2023-05-10T18:55:13.907Z,36.35
2023-05-10T18:57:15.670Z,36.39
2023-05-10T18:59:17.297Z,36.42
2023-05-10T19:01:18.816Z,36.40
2023-05-10T19:03:21.054Z,36.46
2023-05-10T19:05:27.192Z,36.55
2023-05-10T19:07:28.620Z,36.60
2023-05-10T19:09:30.182Z,36.54
2023-05-10T19:11:34.053Z,36.62
2023-05-10T19:13:35.527Z,36.60
2023-05-10T19:15:37.299Z,36.81
2023-05-10T19:17:40.103Z,36.85
2023-05-10T19:19:43.032Z,36.70
2023-05-10T19:21:47.311Z,36.95
2023-05-10T19:23:49.238Z,36.97
2023-05-10T19:25:50.985Z,36.84
2023-05-10T19:27:53.658Z,36.95
2023-05-10T19:29:55.180Z,37.19
2023-05-10T19:31:56.877Z,36.80
2023-05-10T19:34:00.744Z,36.91
2023-05-10T19:36:02.808Z,37.05
2023-05-10T19:38:04.285Z,36.85
2023-05-10T19:40:06.290Z,37.29
2023-05-10T19:42:08.314Z,36.93
2023-05-10T19:44:09.892Z,36.87
2023-05-10T19:46:13.377Z,37.06
2023-05-10T19:48:14.896Z,36.65
2023-05-10T19:50:17.289Z,36.52
2023-05-10T19:52:18.810Z,36.56
2023-05-10T19:54:20.635Z,36.66
2023-05-10T19:56:22.151Z,36.59
2023-05-10T19:58:24.381Z,36.47
2023-05-10T20:00:27.289Z,36.36
2023-05-10T20:02:28.767Z,36.45
2023-05-10T20:04:30.316Z,36.42
2023-05-10T20:06:31.802Z,36.48
2023-05-10T20:08:33.416Z,36.40
2023-05-10T20:10:34.896Z,36.27
2023-05-10T20:12:36.537Z,36.41
2023-05-10T20:14:38.172Z,36.36
2023-05-10T20:16:39.655Z,36.28
2023-05-10T20:18:41.624Z,36.24
2023-05-10T20:20:43.562Z,36.24
2023-05-10T20:22:45.602Z,36.35
2023-05-10T20:24:48.084Z,36.30
2023-05-10T20:26:49.629Z,36.30
2023-05-10T20:28:51.159Z,36.20
2023-05-10T20:30:53.857Z,36.37
2023-05-10T20:32:55.339Z,36.39
2023-05-10T20:34:56.981Z,36.38
2023-05-10T20:36:58.595Z,36.37
2023-05-10T20:39:00.362Z,36.24
2023-05-10T20:41:02.255Z,36.37
2023-05-10T20:43:05.259Z,36.19
2023-05-10T20:45:07.201Z,36.45
2023-05-10T20:47:08.764Z,36.37
2023-05-10T20:49:10.400Z,36.32
2023-05-10T20:51:11.979Z,36.05
2023-05-10T20:53:14.678Z,35.92
2023-05-10T20:55:16.172Z,36.25
2023-05-10T20:57:17.598Z,36.29
2023-05-10T20:59:19.143Z,36.23
2023-05-10T21:01:20.623Z,36.17
2023-05-10T21:03:22.077Z,36.25
2023-05-10T21:05:23.820Z,36.25
2023-05-10T21:07:25.512Z,36.26
2023-05-10T21:09:26.956Z,36.26
2023-05-10T21:11:28.468Z,36.17
2023-05-10T21:13:30.169Z,36.35
2023-05-10T21:15:31.728Z,36.07
2023-05-10T21:17:33.287Z,36.18
2023-05-10T21:19:35.006Z,36.31
2023-05-10T21:21:36.479Z,36.19
2023-05-10T21:23:38.071Z,36.14
2023-05-10T21:25:39.550Z,36.34
2023-05-10T21:27:41.120Z,36.23
2023-05-10T21:29:42.539Z,35.86
2023-05-10T21:31:44.015Z,36.24
2023-05-10T21:33:45.859Z,36.18
2023-05-10T21:35:47.556Z,36.24
2023-05-10T21:37:49.086Z,36.28
2023-05-10T21:39:50.628Z,36.16
2023-05-10T21:41:52.459Z,36.02
2023-05-10T21:43:53.917Z,36.31
2023-05-10T21:45:55.456Z,36.11
2023-05-10T21:47:57.027Z,36.05
2023-05-10T21:49:58.598Z,36.08
2023-05-10T21:52:00.107Z,36.06
2023-05-10T21:54:01.735Z,36.08
2023-05-10T21:56:03.315Z,36.10
2023-05-10T21:58:05.450Z,36.12
2023-05-10T22:00:07.318Z,35.96
2023-05-10T22:02:08.807Z,36.11
2023-05-10T22:04:10.343Z,36.18
2023-05-10T22:06:12.099Z,36.22
2023-05-10T22:08:13.561Z,36.15
2023-05-10T22:10:15.371Z,36.04
2023-05-10T22:12:17.234Z,35.90
2023-05-10T22:14:18.696Z,36.11
2023-05-10T22:16:20.352Z,36.05
2023-05-10T22:18:21.853Z,36.14
2023-05-10T22:20:23.385Z,36.15
2023-05-10T22:22:24.990Z,36.11
2023-05-10T22:24:26.479Z,36.00
2023-05-10T22:26:28.021Z,36.10
2023-05-10T22:28:29.641Z,35.84
2023-05-10T22:30:32.998Z,35.96
2023-05-10T22:32:34.930Z,35.95
2023-05-10T22:34:36.483Z,35.95
2023-05-10T22:36:37.903Z,36.02
2023-05-10T22:38:39.345Z,36.00
2023-05-10T22:40:41.466Z,36.24
2023-05-10T22:42:42.909Z,36.08
2023-05-10T22:44:44.457Z,36.08
2023-05-10T22:46:46.185Z,36.05
2023-05-10T22:48:48.400Z,35.91
2023-05-10T22:50:49.862Z,36.06
2023-05-10T22:52:51.281Z,35.86
2023-05-10T22:54:52.701Z,36.09
2023-05-10T22:56:54.262Z,35.98
2023-05-10T22:58:56.452Z,35.98
2023-05-10T23:00:58.008Z,35.87
2023-05-10T23:02:59.962Z,36.04
2023-05-10T23:05:01.570Z,35.91
2023-05-10T23:07:03.238Z,35.95
2023-05-10T23:09:04.770Z,35.74
2023-05-10T23:11:06.173Z,35.96
2023-05-10T23:13:07.875Z,36.00
2023-05-10T23:15:09.563Z,36.08
2023-05-10T23:17:11.569Z,35.90
2023-05-10T23:19:13.079Z,35.92
2023-05-10T23:21:14.512Z,35.91
2023-05-10T23:23:16.726Z,35.67
2023-05-10T23:25:18.238Z,35.90
2023-05-10T23:27:19.889Z,35.94
2023-05-10T23:29:21.400Z,35.88
2023-05-10T23:31:22.871Z,35.86
2023-05-10T23:33:24.856Z,35.83
2023-05-10T23:35:26.304Z,35.68
2023-05-10T23:37:27.935Z,35.86
2023-05-10T23:39:30.111Z,35.77
2023-05-10T23:41:31.661Z,36.08
2023-05-10T23:43:33.147Z,35.90
2023-05-10T23:45:34.888Z,36.03
2023-05-10T23:47:36.461Z,36.01
2023-05-10T23:49:38.164Z,35.84
2023-05-10T23:51:39.654Z,35.96
2023-05-10T23:53:41.320Z,35.91
2023-05-10T23:55:42.804Z,35.95
2023-05-10T23:57:44.400Z,35.94
2023-05-10T23:59:46.152Z,35.85
